Time;durP1;ratioP1;P1;durP2;ratioP2;P2;SDS_P1;SDS_P2;PMS_P1;PMS_P2;Temp;Humidity;BMP_temperature;BMP_pressure;BME280_temperature;BME280_humidity;BME280_pressure;Samples;Min_cycle;Max_cycle;Signal;HPM_P1;HPM_P2
2024/04/21 00:00:16;;;;;;;3.80;1.73;;;;;;;;;;5279933;27;20064;-66
2024/04/21 00:02:41;;;;;;;3.50;2.35;;;;;;;;;;5279711;27;20017;-66
2024/04/21 00:05:08;;;;;;;3.47;2.03;;;;;;;;;;5279872;27;20026;-66
2024/04/21 00:07:33;;;;;;;1.77;1.65;;;;;;;;;;5279835;27;20367;-66
2024/04/21 00:09:58;;;;;;;4.25;2.22;;;;;;;;;;5279812;27;19998;-66
2024/04/21 00:12:24;;;;;;;3.22;2.38;;;;;;;;;;5279572;27;20007;-65
2024/04/21 00:14:49;;;;;;;2.45;1.63;;;;;;;;;;5279667;27;20460;-66
2024/04/21 00:17:14;;;;;;;3.20;1.83;;;;;;;;;;5279705;27;20009;-66
2024/04/21 00:19:39;;;;;;;5.70;2.33;;;;;;;;;;5279615;27;20026;-66
2024/04/21 00:22:05;;;;;;;2.88;2.10;;;;;;;;;;5279497;27;20022;-66
2024/04/21 00:24:30;;;;;;;3.45;2.05;;;;;;;;;;5279477;27;20022;-66
2024/04/21 00:26:56;;;;;;;3.70;2.15;;;;;;;;;;5279452;27;20473;-66
2024/04/21 00:29:22;;;;;;;3.50;2.65;;;;;;;;;;5279458;27;19998;-66
2024/04/21 00:31:47;;;;;;;5.25;2.05;;;;;;;;;;5279423;27;20166;-65
2024/04/21 00:34:12;;;;;;;3.58;2.15;;;;;;;;;;5279330;27;20065;-65
2024/04/21 00:36:40;;;;;;;4.70;2.53;;;;;;;;;;5279431;27;20449;-66
2024/04/21 00:39:06;;;;;;;6.40;2.95;;;;;;;;;;5279333;27;20094;-66
2024/04/21 00:41:32;;;;;;;6.28;2.65;;;;;;;;;;5279329;27;19999;-66
2024/04/21 00:43:57;;;;;;;5.30;2.67;;;;;;;;;;5279153;27;20510;-66
2024/04/21 00:46:22;;;;;;;7.28;2.88;;;;;;;;;;5279310;27;20002;-66
2024/04/21 00:48:48;;;;;;;7.35;2.72;;;;;;;;;;5279190;27;19999;-66
2024/04/21 00:51:15;;;;;;;12.15;3.60;;;;;;;;;;5279344;27;20411;-66
2024/04/21 00:53:40;;;;;;;5.13;3.20;;;;;;;;;;5305856;26;19998;-66
2024/04/21 00:56:06;;;;;;;7.25;2.88;;;;;;;;;;5279171;27;20006;-66
2024/04/21 00:58:33;;;;;;;8.57;2.88;;;;;;;;;;5279188;27;20009;-66
2024/04/21 01:00:58;;;;;;;9.00;3.15;;;;;;;;;;5305843;27;20030;-66
2024/04/21 01:03:24;;;;;;;6.97;3.83;;;;;;;;;;5304516;26;20013;-66
2024/04/21 01:05:49;;;;;;;5.38;3.10;;;;;;;;;;5278750;27;20068;-66
2024/04/21 01:08:15;;;;;;;8.38;4.90;;;;;;;;;;5278990;27;19998;-66
2024/04/21 01:10:40;;;;;;;8.73;4.75;;;;;;;;;;5278933;27;20075;-66
2024/04/21 01:13:12;;;;;;;8.52;4.45;;;;;;;;;;5278742;27;20468;-66
2024/04/21 01:15:37;;;;;;;9.77;5.32;;;;;;;;;;5278832;27;20013;-66
2024/04/21 01:18:04;;;;;;;6.90;4.00;;;;;;;;;;5278859;27;20006;-66
2024/04/21 01:20:31;;;;;;;10.23;5.35;;;;;;;;;;5278744;27;20009;-66
2024/04/21 01:22:56;;;;;;;8.95;3.92;;;;;;;;;;5305596;27;19998;-66
2024/04/21 01:25:21;;;;;;;8.63;4.75;;;;;;;;;;5278692;27;20050;-66
2024/04/21 01:27:47;;;;;;;14.82;4.75;;;;;;;;;;5278743;27;20040;-66
2024/04/21 01:30:12;;;;;;;12.02;5.03;;;;;;;;;;5278733;27;20394;-63
2024/04/21 01:32:39;;;;;;;8.13;4.05;;;;;;;;;;5278387;27;20072;-63
2024/04/21 01:35:05;;;;;;;8.05;3.97;;;;;;;;;;5278499;27;20046;-63
2024/04/21 01:37:30;;;;;;;8.27;4.53;;;;;;;;;;5278538;27;20017;-63
2024/04/21 01:39:56;;;;;;;9.30;3.80;;;;;;;;;;5278546;27;20002;-63
2024/04/21 01:42:21;;;;;;;7.90;3.90;;;;;;;;;;5276651;27;20009;-63
2024/04/21 01:44:46;;;;;;;10.73;5.30;;;;;;;;;;5278772;27;20002;-63
2024/04/21 01:47:11;;;;;;;12.25;4.68;;;;;;;;;;5278336;27;20013;-63
2024/04/21 01:49:37;;;;;;;6.95;3.97;;;;;;;;;;5278378;27;20075;-63
2024/04/21 01:52:02;;;;;;;7.90;3.72;;;;;;;;;;5278264;27;20073;-63
2024/04/21 01:54:27;;;;;;;9.25;4.05;;;;;;;;;;5278124;27;20002;-63
2024/04/21 01:56:52;;;;;;;10.85;4.10;;;;;;;;;;5278178;27;20452;-63
2024/04/21 01:59:18;;;;;;;8.30;4.25;;;;;;;;;;5278219;27;20511;-63
2024/04/21 02:01:43;;;;;;;8.27;5.00;;;;;;;;;;5278169;27;20012;-63
2024/04/21 02:04:08;;;;;;;7.90;4.50;;;;;;;;;;5277915;27;20329;-63
2024/04/21 02:06:35;;;;;;;7.32;3.70;;;;;;;;;;5278095;27;19999;-63
2024/04/21 02:09:00;;;;;;;8.80;4.40;;;;;;;;;;5277897;27;20464;-63
2024/04/21 02:11:26;;;;;;;9.75;4.80;;;;;;;;;;5277934;27;19994;-63
2024/04/21 02:13:51;;;;;;;10.98;4.82;;;;;;;;;;5277790;27;20009;-63
2024/04/21 02:16:16;;;;;;;8.15;4.35;;;;;;;;;;5280580;27;20347;-63
2024/04/21 02:18:42;;;;;;;11.77;5.05;;;;;;;;;;5281152;27;20078;-63
2024/04/21 02:21:07;;;;;;;11.27;5.00;;;;;;;;;;5281156;27;20012;-63
2024/04/21 02:23:32;;;;;;;11.98;5.03;;;;;;;;;;5281088;27;20010;-63
2024/04/21 02:25:59;;;;;;;13.07;5.47;;;;;;;;;;5281102;27;20321;-63
2024/04/21 02:28:24;;;;;;;8.52;4.18;;;;;;;;;;5281170;27;20013;-63
2024/04/21 02:30:49;;;;;;;12.52;5.38;;;;;;;;;;5281125;27;20014;-63
2024/04/21 02:33:15;;;;;;;11.13;5.72;;;;;;;;;;5280937;27;19996;-63
2024/04/21 02:35:40;;;;;;;13.43;5.95;;;;;;;;;;5281082;27;20009;-63
2024/04/21 02:38:05;;;;;;;10.50;4.90;;;;;;;;;;5280923;27;20009;-63
2024/04/21 02:40:31;;;;;;;11.00;5.35;;;;;;;;;;5281077;27;20013;-63
2024/04/21 02:42:56;;;;;;;11.60;5.78;;;;;;;;;;5280942;27;20010;-63
2024/04/21 02:45:21;;;;;;;13.85;5.25;;;;;;;;;;5281266;27;20003;-63
2024/04/21 02:47:46;;;;;;;10.70;4.75;;;;;;;;;;5280875;27;20340;-63
2024/04/21 02:50:12;;;;;;;15.77;5.43;;;;;;;;;;5280965;27;20002;-63
2024/04/21 02:52:37;;;;;;;11.68;4.60;;;;;;;;;;5280664;27;20010;-63
2024/04/21 02:55:02;;;;;;;10.45;4.50;;;;;;;;;;5280731;27;20379;-63
2024/04/21 02:57:28;;;;;;;9.93;4.30;;;;;;;;;;5280652;27;20006;-63
2024/04/21 02:59:55;;;;;;;7.35;4.55;;;;;;;;;;5280716;27;20013;-63
2024/04/21 03:02:20;;;;;;;8.10;4.35;;;;;;;;;;5280636;27;19998;-63
2024/04/21 03:04:45;;;;;;;8.43;4.03;;;;;;;;;;5280516;27;20013;-63
2024/04/21 03:07:11;;;;;;;5.15;3.42;;;;;;;;;;5280566;27;20474;-63
2024/04/21 03:09:36;;;;;;;10.18;3.83;;;;;;;;;;5280634;27;20102;-63
2024/04/21 03:12:01;;;;;;;11.38;3.78;;;;;;;;;;5280591;27;20360;-63
2024/04/21 03:14:26;;;;;;;6.95;4.13;;;;;;;;;;5280421;27;19998;-63
2024/04/21 03:16:52;;;;;;;13.55;4.20;;;;;;;;;;5280427;27;20007;-63
2024/04/21 03:19:17;;;;;;;12.93;5.18;;;;;;;;;;5280438;27;20080;-63
2024/04/21 03:21:42;;;;;;;15.27;4.45;;;;;;;;;;5280474;27;19998;-63
2024/04/21 03:24:08;;;;;;;7.68;4.38;;;;;;;;;;5280293;27;20038;-63
2024/04/21 03:26:33;;;;;;;7.78;4.45;;;;;;;;;;5279546;27;20018;-63
2024/04/21 03:28:58;;;;;;;7.60;3.85;;;;;;;;;;5280391;27;20049;-65
2024/04/21 03:31:23;;;;;;;6.15;3.88;;;;;;;;;;5280398;27;20031;-66
2024/04/21 03:33:49;;;;;;;7.88;4.38;;;;;;;;;;5280214;27;19998;-66
2024/04/21 03:36:14;;;;;;;8.48;3.80;;;;;;;;;;5280306;27;20004;-66
2024/04/21 03:38:39;;;;;;;7.28;3.95;;;;;;;;;;5280250;27;20010;-66
2024/04/21 03:41:05;;;;;;;7.78;5.00;;;;;;;;;;5280179;27;20030;-66
2024/04/21 03:43:30;;;;;;;7.15;3.70;;;;;;;;;;5279886;27;19995;-66
2024/04/21 03:45:56;;;;;;;11.25;3.88;;;;;;;;;;5280261;27;20006;-66
2024/04/21 03:48:22;;;;;;;9.80;3.85;;;;;;;;;;5280057;27;20072;-66
2024/04/21 03:50:47;;;;;;;6.68;4.18;;;;;;;;;;5279982;27;20005;-66
2024/04/21 03:53:15;;;;;;;9.15;4.82;;;;;;;;;;5279914;27;20002;-66
2024/04/21 03:55:40;;;;;;;9.77;4.30;;;;;;;;;;5279982;27;20467;-66
2024/04/21 03:58:05;;;;;;;9.82;4.03;;;;;;;;;;5279914;27;20006;-66
2024/04/21 04:00:32;;;;;;;7.47;4.60;;;;;;;;;;5279978;27;20010;-66
2024/04/21 04:02:58;;;;;;;5.80;3.72;;;;;;;;;;5279763;27;20009;-66
2024/04/21 04:05:23;;;;;;;7.38;4.20;;;;;;;;;;5279845;27;20349;-66
2024/04/21 04:07:49;;;;;;;8.50;4.40;;;;;;;;;;5279777;27;20489;-66
2024/04/21 04:10:14;;;;;;;11.82;4.85;;;;;;;;;;5279853;27;20030;-66
2024/04/21 04:12:42;;;;;;;9.43;4.25;;;;;;;;;;5279675;27;20460;-66
2024/04/21 04:15:14;;;;;;;9.27;4.45;;;;;;;;;;5277990;27;19994;-66
2024/04/21 04:17:39;;;;;;;10.05;4.40;;;;;;;;;;5279714;27;20009;-66
2024/04/21 04:20:11;;;;;;;14.68;5.07;;;;;;;;;;5279645;27;19999;-66
2024/04/21 04:22:37;;;;;;;10.35;4.90;;;;;;;;;;5279556;27;20005;-66
2024/04/21 04:25:03;;;;;;;13.52;5.97;;;;;;;;;;5279623;27;19998;-66
2024/04/21 04:27:28;;;;;;;7.85;4.18;;;;;;;;;;5279502;27;20457;-66
2024/04/21 04:29:54;;;;;;;10.10;4.70;;;;;;;;;;5279452;27;20411;-66
2024/04/21 04:32:19;;;;;;;11.27;4.40;;;;;;;;;;5279477;27;20010;-64
2024/04/21 04:34:44;;;;;;;9.88;5.00;;;;;;;;;;5279451;27;19998;-63
2024/04/21 04:37:09;;;;;;;14.10;4.57;;;;;;;;;;5279431;27;20001;-63
2024/04/21 04:39:35;;;;;;;7.10;4.65;;;;;;;;;;5279704;27;20087;-63
2024/04/21 04:42:00;;;;;;;6.95;4.22;;;;;;;;;;5279385;27;20022;-63
2024/04/21 04:44:25;;;;;;;6.97;3.85;;;;;;;;;;5279352;27;20460;-63
2024/04/21 04:46:50;;;;;;;10.95;4.60;;;;;;;;;;5279297;27;20010;-63
2024/04/21 04:49:16;;;;;;;7.85;4.60;;;;;;;;;;5279281;27;20005;-63
2024/04/21 04:51:41;;;;;;;7.50;3.38;;;;;;;;;;5279294;27;20009;-63
2024/04/21 04:54:06;;;;;;;9.43;4.28;;;;;;;;;;5279039;27;20010;-63
2024/04/21 04:56:31;;;;;;;10.55;5.15;;;;;;;;;;5279163;27;20453;-64
2024/04/21 04:58:57;;;;;;;12.07;4.82;;;;;;;;;;5277392;27;20002;-64
2024/04/21 05:01:22;;;;;;;12.75;4.43;;;;;;;;;;5277339;27;20403;-63
2024/04/21 05:03:48;;;;;;;11.57;4.57;;;;;;;;;;5278941;27;20039;-63
2024/04/21 05:06:13;;;;;;;10.38;5.07;;;;;;;;;;5278964;27;20005;-63
2024/04/21 05:08:39;;;;;;;9.45;4.47;;;;;;;;;;5278942;27;20011;-63
2024/04/21 05:11:04;;;;;;;7.97;4.85;;;;;;;;;;5279007;27;20497;-64
2024/04/21 05:13:29;;;;;;;7.63;4.07;;;;;;;;;;5278788;27;20026;-63
2024/04/21 05:15:55;;;;;;;10.27;5.38;;;;;;;;;;5278902;27;20383;-64
2024/04/21 05:18:20;;;;;;;10.65;5.00;;;;;;;;;;5278776;27;20041;-64
2024/04/21 05:20:46;;;;;;;7.85;4.97;;;;;;;;;;5278863;27;20013;-64
2024/04/21 05:23:11;;;;;;;8.65;4.55;;;;;;;;;;5305563;26;19999;-64
2024/04/21 05:25:36;;;;;;;10.50;4.50;;;;;;;;;;5278576;27;20001;-63
2024/04/21 05:28:02;;;;;;;10.15;5.32;;;;;;;;;;5278718;27;20002;-63
2024/04/21 05:30:27;;;;;;;8.32;4.05;;;;;;;;;;5278649;27;20006;-63
2024/04/21 05:32:52;;;;;;;7.80;4.68;;;;;;;;;;5278455;27;20013;-63
2024/04/21 05:35:18;;;;;;;14.95;4.88;;;;;;;;;;5278611;27;20005;-63
2024/04/21 05:37:44;;;;;;;10.93;4.43;;;;;;;;;;5278659;27;20097;-63
2024/04/21 05:40:09;;;;;;;17.40;5.82;;;;;;;;;;5278466;27;20066;-63
2024/04/21 05:42:34;;;;;;;9.88;5.75;;;;;;;;;;5278376;27;20014;-63
2024/04/21 05:45:00;;;;;;;8.00;4.68;;;;;;;;;;5278482;27;20010;-63
2024/04/21 05:47:25;;;;;;;11.77;5.88;;;;;;;;;;5278369;27;20002;-63
2024/04/21 05:49:50;;;;;;;16.17;7.43;;;;;;;;;;5277752;27;19998;-63
2024/04/21 05:52:16;;;;;;;12.93;6.55;;;;;;;;;;5278238;27;20010;-63
2024/04/21 05:54:41;;;;;;;12.63;5.85;;;;;;;;;;5278128;27;20471;-63
2024/04/21 05:57:06;;;;;;;8.40;4.55;;;;;;;;;;5278221;27;19998;-63
2024/04/21 05:59:32;;;;;;;12.60;4.70;;;;;;;;;;5278158;27;20013;-63
2024/04/21 06:01:57;;;;;;;11.60;4.82;;;;;;;;;;5278239;27;20010;-63
2024/04/21 06:04:22;;;;;;;12.60;5.55;;;;;;;;;;5278107;27;20002;-63
2024/04/21 06:06:50;;;;;;;9.93;4.88;;;;;;;;;;5278126;27;20497;-63
2024/04/21 06:09:16;;;;;;;14.75;5.90;;;;;;;;;;5278005;27;20006;-63
2024/04/21 06:11:41;;;;;;;10.23;5.78;;;;;;;;;;5277959;27;20002;-63
2024/04/21 06:14:07;;;;;;;12.63;5.78;;;;;;;;;;5277849;27;20435;-64
2024/04/21 06:16:32;;;;;;;9.48;5.00;;;;;;;;;;5277875;27;20006;-64
2024/04/21 06:18:58;;;;;;;9.52;4.82;;;;;;;;;;5277912;27;20352;-64
2024/04/21 06:21:23;;;;;;;11.55;5.57;;;;;;;;;;5277784;27;20026;-64
2024/04/21 06:23:48;;;;;;;16.65;5.75;;;;;;;;;;5277730;27;20013;-64
2024/04/21 06:26:13;;;;;;;13.23;6.20;;;;;;;;;;5277853;27;20009;-64
2024/04/21 06:28:39;;;;;;;10.02;5.43;;;;;;;;;;5277810;27;20045;-64
2024/04/21 06:31:04;;;;;;;10.40;6.32;;;;;;;;;;5277708;27;20030;-65
2024/04/21 06:33:29;;;;;;;11.00;5.95;;;;;;;;;;5277570;27;20391;-64
2024/04/21 06:35:55;;;;;;;15.43;6.10;;;;;;;;;;5277594;27;20002;-65
2024/04/21 06:38:20;;;;;;;17.45;6.88;;;;;;;;;;5275344;27;20076;-64
2024/04/21 06:40:45;;;;;;;13.23;5.90;;;;;;;;;;5276240;27;20024;-67
2024/04/21 06:43:10;;;;;;;12.73;5.22;;;;;;;;;;5276199;27;20448;-68
2024/04/21 06:45:36;;;;;;;11.25;5.25;;;;;;;;;;5276401;27;20030;-69
2024/04/21 06:48:01;;;;;;;9.32;5.45;;;;;;;;;;5303196;27;20444;-70
2024/04/21 06:50:27;;;;;;;11.48;5.70;;;;;;;;;;5274632;27;20440;-68
2024/04/21 06:52:52;;;;;;;13.27;6.18;;;;;;;;;;5275894;27;20134;-69
2024/04/21 06:55:17;;;;;;;14.50;6.38;;;;;;;;;;5303045;27;20073;-69
2024/04/21 06:57:44;;;;;;;15.18;6.90;;;;;;;;;;5276177;27;20484;-67
2024/04/21 07:00:10;;;;;;;11.27;5.68;;;;;;;;;;5277159;27;20013;-68
2024/04/21 07:02:39;;;;;;;10.27;5.53;;;;;;;;;;5276037;27;20009;-67
2024/04/21 07:05:04;;;;;;;14.00;7.32;;;;;;;;;;5266582;27;20005;-68
2024/04/21 07:07:29;;;;;;;10.82;5.57;;;;;;;;;;5296275;26;19994;-68
2024/04/21 07:09:55;;;;;;;10.40;5.18;;;;;;;;;;5272921;27;20008;-69
2024/04/21 07:12:20;;;;;;;11.13;5.75;;;;;;;;;;5278409;27;20023;-69
2024/04/21 07:14:45;;;;;;;13.10;5.65;;;;;;;;;;5275803;27;20038;-67
2024/04/21 07:17:10;;;;;;;8.73;5.00;;;;;;;;;;5275619;27;20035;-68
2024/04/21 07:19:36;;;;;;;11.82;6.25;;;;;;;;;;5280232;27;20508;-68
2024/04/21 07:22:01;;;;;;;9.65;5.00;;;;;;;;;;5280249;27;20026;-68
2024/04/21 07:24:26;;;;;;;9.13;4.78;;;;;;;;;;5277674;27;20339;-68
2024/04/21 07:26:52;;;;;;;10.30;4.65;;;;;;;;;;5280235;27;20046;-68
2024/04/21 07:29:17;;;;;;;12.63;5.30;;;;;;;;;;5278159;27;19998;-68
2024/04/21 07:31:42;;;;;;;12.18;5.05;;;;;;;;;;5277368;27;19998;-68
2024/04/21 07:34:07;;;;;;;8.02;4.25;;;;;;;;;;5274527;27;19994;-68
2024/04/21 07:36:33;;;;;;;7.63;4.50;;;;;;;;;;5278166;27;19999;-68
2024/04/21 07:38:58;;;;;;;7.43;4.43;;;;;;;;;;5280040;27;20030;-68
2024/04/21 07:41:23;;;;;;;8.48;4.10;;;;;;;;;;5279744;27;20077;-68
2024/04/21 07:43:48;;;;;;;6.53;3.80;;;;;;;;;;5279027;27;20011;-68
2024/04/21 07:46:14;;;;;;;8.98;4.38;;;;;;;;;;5303955;26;20011;-67
2024/04/21 07:48:39;;;;;;;10.57;4.30;;;;;;;;;;5279464;27;20002;-68
2024/04/21 07:51:04;;;;;;;7.05;3.55;;;;;;;;;;5268210;27;19999;-68
2024/04/21 07:53:30;;;;;;;8.15;4.72;;;;;;;;;;5279113;27;20518;-68
2024/04/21 07:55:55;;;;;;;7.38;3.60;;;;;;;;;;5274898;27;20028;-68
2024/04/21 07:58:20;;;;;;;6.57;4.10;;;;;;;;;;5279688;27;19994;-67
2024/04/21 08:00:45;;;;;;;5.78;3.55;;;;;;;;;;5277636;27;20017;-67
2024/04/21 08:03:11;;;;;;;8.30;4.07;;;;;;;;;;5279355;27;20035;-67
2024/04/21 08:05:36;;;;;;;7.07;3.92;;;;;;;;;;5278612;27;20091;-67
2024/04/21 08:08:02;;;;;;;6.45;3.55;;;;;;;;;;5275541;27;20030;-69
2024/04/21 08:10:27;;;;;;;6.25;3.35;;;;;;;;;;5279101;27;19998;-66
2024/04/21 08:12:52;;;;;;;6.38;3.60;;;;;;;;;;5278950;27;20395;-66
2024/04/21 08:15:18;;;;;;;6.82;3.42;;;;;;;;;;5278941;27;20043;-66
2024/04/21 08:17:43;;;;;;;6.53;4.20;;;;;;;;;;5277900;27;20009;-66
2024/04/21 08:20:09;;;;;;;5.07;3.10;;;;;;;;;;5265892;27;19999;-65
2024/04/21 08:22:34;;;;;;;11.13;4.10;;;;;;;;;;5275923;27;20030;-63
2024/04/21 08:24:59;;;;;;;5.32;3.40;;;;;;;;;;5277617;27;20003;-63
2024/04/21 08:27:25;;;;;;;6.40;3.60;;;;;;;;;;5250136;27;20017;-64
2024/04/21 08:29:50;;;;;;;6.63;3.40;;;;;;;;;;5278277;27;20350;-65
2024/04/21 08:32:15;;;;;;;4.80;3.20;;;;;;;;;;5277694;27;20002;-64
2024/04/21 08:34:41;;;;;;;5.40;3.15;;;;;;;;;;5278870;27;20343;-64
2024/04/21 08:37:06;;;;;;;6.63;3.42;;;;;;;;;;5274742;27;20067;-65
2024/04/21 08:39:33;;;;;;;5.05;3.20;;;;;;;;;;5277025;27;20031;-65
2024/04/21 08:41:58;;;;;;;4.65;3.00;;;;;;;;;;5272095;27;19995;-65
2024/04/21 08:44:23;;;;;;;5.40;3.30;;;;;;;;;;5274709;27;20408;-65
2024/04/21 08:46:52;;;;;;;8.60;4.53;;;;;;;;;;5276551;27;20009;-65
2024/04/21 08:49:18;;;;;;;6.70;3.20;;;;;;;;;;5279085;27;20363;-66
2024/04/21 08:51:46;;;;;;;6.03;3.28;;;;;;;;;;5278987;27;20002;-65
2024/04/21 08:54:11;;;;;;;7.65;4.35;;;;;;;;;;5276968;26;20364;-65
2024/04/21 08:56:43;;;;;;;6.22;3.50;;;;;;;;;;5278251;26;19998;-65
2024/04/21 08:59:08;;;;;;;7.43;4.80;;;;;;;;;;5303267;26;20052;-65
2024/04/21 09:01:34;;;;;;;8.25;5.15;;;;;;;;;;5277981;27;19994;-65
2024/04/21 09:04:00;;;;;;;13.13;4.95;;;;;;;;;;5273285;27;20002;-65
2024/04/21 09:06:26;;;;;;;9.02;5.20;;;;;;;;;;5276558;27;20073;-65
2024/04/21 09:08:55;;;;;;;9.32;5.00;;;;;;;;;;5277486;27;20460;-66
2024/04/21 09:11:20;;;;;;;8.77;5.22;;;;;;;;;;5277330;27;20076;-65
2024/04/21 09:13:45;;;;;;;10.38;6.22;;;;;;;;;;5278330;27;20457;-65
2024/04/21 09:16:11;;;;;;;7.90;4.80;;;;;;;;;;5277978;27;20002;-65
2024/04/21 09:18:36;;;;;;;7.43;4.38;;;;;;;;;;5277692;26;20839;-65
2024/04/21 09:21:01;;;;;;;8.05;4.75;;;;;;;;;;5277793;27;20031;-66
2024/04/21 09:23:27;;;;;;;11.77;4.38;;;;;;;;;;5278836;27;19998;-66
2024/04/21 09:25:52;;;;;;;7.75;4.03;;;;;;;;;;5276709;26;20340;-65
2024/04/21 09:28:18;;;;;;;7.50;4.28;;;;;;;;;;5275767;27;20072;-65
2024/04/21 09:30:45;;;;;;;7.63;3.63;;;;;;;;;;5278374;27;19998;-65
2024/04/21 09:33:10;;;;;;;5.95;3.65;;;;;;;;;;5277099;27;19998;-65
2024/04/21 09:35:36;;;;;;;6.35;3.65;;;;;;;;;;5278639;27;20049;-65
2024/04/21 09:38:02;;;;;;;5.80;3.33;;;;;;;;;;5278443;26;19994;-65
2024/04/21 09:40:27;;;;;;;9.73;4.40;;;;;;;;;;5278624;27;20002;-65
2024/04/21 09:42:53;;;;;;;6.68;3.60;;;;;;;;;;5304569;27;19998;-65
2024/04/21 09:45:20;;;;;;;6.25;2.92;;;;;;;;;;5277099;27;20011;-65
2024/04/21 09:47:46;;;;;;;6.22;3.22;;;;;;;;;;5277983;27;19995;-65
2024/04/21 09:50:12;;;;;;;6.00;2.88;;;;;;;;;;5277386;27;20098;-65
2024/04/21 09:52:38;;;;;;;6.40;3.20;;;;;;;;;;5269074;27;20068;-65
2024/04/21 09:55:04;;;;;;;4.07;2.80;;;;;;;;;;5277501;27;19998;-65
2024/04/21 09:57:33;;;;;;;4.20;2.75;;;;;;;;;;5270386;27;20009;-65
2024/04/21 10:00:03;;;;;;;5.47;3.20;;;;;;;;;;5277873;27;20010;-65
2024/04/21 10:02:35;;;;;;;7.07;3.25;;;;;;;;;;5277397;27;20005;-65
2024/04/21 10:05:05;;;;;;;5.32;2.90;;;;;;;;;;5273067;27;19998;-65
2024/04/21 10:07:34;;;;;;;6.28;2.83;;;;;;;;;;5277077;27;20399;-65
2024/04/21 10:10:03;;;;;;;7.50;3.15;;;;;;;;;;5275213;27;20013;-65
2024/04/21 10:12:28;;;;;;;5.75;3.08;;;;;;;;;;5268420;27;20076;-65
2024/04/21 10:14:54;;;;;;;3.72;2.38;;;;;;;;;;5275515;27;20038;-65
2024/04/21 10:17:19;;;;;;;3.53;2.22;;;;;;;;;;5276523;27;20013;-65
2024/04/21 10:19:45;;;;;;;3.40;2.65;;;;;;;;;;5244467;27;19999;-65
2024/04/21 10:22:10;;;;;;;2.47;2.00;;;;;;;;;;5243246;27;20007;-65
2024/04/21 10:24:37;;;;;;;3.13;2.08;;;;;;;;;;5267439;27;20002;-65
2024/04/21 10:27:03;;;;;;;2.92;2.05;;;;;;;;;;5275723;27;19999;-65
2024/04/21 10:29:29;;;;;;;2.78;2.05;;;;;;;;;;5276977;27;20005;-65
2024/04/21 10:31:55;;;;;;;5.30;1.77;;;;;;;;;;5275116;27;20002;-65
2024/04/21 10:34:20;;;;;;;3.85;2.25;;;;;;;;;;5246819;27;19996;-65
2024/04/21 10:36:46;;;;;;;3.38;2.22;;;;;;;;;;5262472;27;20335;-65
2024/04/21 10:39:22;;;;;;;2.20;1.85;;;;;;;;;;5280204;27;20018;-65
2024/04/21 10:41:49;;;;;;;5.35;2.33;;;;;;;;;;5272924;26;20011;-65
2024/04/21 10:44:14;;;;;;;4.65;2.10;;;;;;;;;;5278555;27;20009;-65
2024/04/21 10:46:39;;;;;;;3.47;2.45;;;;;;;;;;5280676;27;20002;-65
2024/04/21 10:49:05;;;;;;;4.38;1.92;;;;;;;;;;5279434;27;19998;-65
2024/04/21 10:51:33;;;;;;;4.47;2.65;;;;;;;;;;5275392;27;20080;-65
2024/04/21 10:53:58;;;;;;;3.70;2.13;;;;;;;;;;5279518;27;19990;-65
2024/04/21 10:56:23;;;;;;;3.95;2.13;;;;;;;;;;5279716;27;20487;-65
2024/04/21 10:58:49;;;;;;;2.50;1.65;;;;;;;;;;5280120;27;19994;-65
2024/04/21 11:01:14;;;;;;;4.20;2.00;;;;;;;;;;5279010;26;19994;-65
2024/04/21 11:03:41;;;;;;;4.45;2.10;;;;;;;;;;5280425;27;20452;-65
2024/04/21 11:06:08;;;;;;;3.67;2.03;;;;;;;;;;5271921;27;20088;-65
2024/04/21 11:08:34;;;;;;;4.28;2.22;;;;;;;;;;5265337;27;20459;-65
2024/04/21 11:10:59;;;;;;;3.70;2.00;;;;;;;;;;5279518;27;20017;-65
2024/04/21 11:13:25;;;;;;;3.85;2.35;;;;;;;;;;5279253;26;20532;-65
2024/04/21 11:15:50;;;;;;;3.17;2.35;;;;;;;;;;5271530;27;20054;-65
2024/04/21 11:18:16;;;;;;;4.35;1.90;;;;;;;;;;5279493;27;20329;-65
2024/04/21 11:20:42;;;;;;;4.35;1.85;;;;;;;;;;5278447;27;20016;-65
2024/04/21 11:23:09;;;;;;;3.05;1.60;;;;;;;;;;5267881;27;20453;-65
2024/04/21 11:25:36;;;;;;;2.45;1.63;;;;;;;;;;5279923;27;20002;-66
2024/04/21 11:28:11;;;;;;;3.75;2.03;;;;;;;;;;5279671;27;20342;-65
2024/04/21 11:30:36;;;;;;;4.05;1.92;;;;;;;;;;5279986;27;20002;-65
2024/04/21 11:33:02;;;;;;;4.72;2.03;;;;;;;;;;5278563;27;20002;-65
2024/04/21 11:35:27;;;;;;;3.70;2.08;;;;;;;;;;5278916;27;20009;-65
2024/04/21 11:37:53;;;;;;;3.90;2.15;;;;;;;;;;5277599;27;19991;-65
2024/04/21 11:40:18;;;;;;;3.20;2.35;;;;;;;;;;5279102;27;19994;-65
2024/04/21 11:42:44;;;;;;;2.30;1.85;;;;;;;;;;5272124;27;20010;-65
2024/04/21 11:45:10;;;;;;;3.45;1.95;;;;;;;;;;5245727;27;19999;-65
2024/04/21 11:47:35;;;;;;;4.30;2.20;;;;;;;;;;5250346;27;20002;-65
2024/04/21 11:50:00;;;;;;;5.40;2.38;;;;;;;;;;5270475;27;20073;-65
2024/04/21 11:52:26;;;;;;;5.22;2.10;;;;;;;;;;5278592;26;19995;-65
2024/04/21 11:54:51;;;;;;;2.45;2.00;;;;;;;;;;5268326;26;20011;-66
2024/04/21 11:57:16;;;;;;;3.88;2.20;;;;;;;;;;5276841;27;20076;-66
2024/04/21 11:59:41;;;;;;;3.65;2.10;;;;;;;;;;5279763;27;20036;-66
2024/04/21 12:02:07;;;;;;;6.03;2.40;;;;;;;;;;5279150;27;20026;-66
2024/04/21 12:04:32;;;;;;;3.83;1.92;;;;;;;;;;5279627;27;20459;-66
2024/04/21 12:06:58;;;;;;;2.90;1.77;;;;;;;;;;5278782;27;20452;-66
2024/04/21 12:09:23;;;;;;;3.28;2.20;;;;;;;;;;5279300;27;20098;-66
2024/04/21 12:11:48;;;;;;;5.90;2.30;;;;;;;;;;5279723;27;20038;-66
2024/04/21 12:14:20;;;;;;;6.45;2.55;;;;;;;;;;5279759;27;20002;-66
2024/04/21 12:16:46;;;;;;;3.17;1.92;;;;;;;;;;5279013;27;19998;-66
2024/04/21 12:19:11;;;;;;;5.93;2.70;;;;;;;;;;5279408;27;19999;-66
2024/04/21 12:21:36;;;;;;;4.80;1.80;;;;;;;;;;5279519;27;20364;-66
2024/04/21 12:24:01;;;;;;;3.83;2.00;;;;;;;;;;5279360;27;20077;-66
2024/04/21 12:26:27;;;;;;;2.97;1.67;;;;;;;;;;5279405;27;20098;-66
2024/04/21 12:28:52;;;;;;;3.35;1.90;;;;;;;;;;5278917;27;20035;-66
2024/04/21 12:31:17;;;;;;;3.10;2.00;;;;;;;;;;5279546;26;20086;-66
2024/04/21 12:33:43;;;;;;;4.82;1.90;;;;;;;;;;5279436;27;20005;-66
2024/04/21 12:36:08;;;;;;;3.20;1.85;;;;;;;;;;5279597;27;19995;-66
2024/04/21 12:38:33;;;;;;;6.28;2.05;;;;;;;;;;5279528;27;20003;-66
2024/04/21 12:40:59;;;;;;;3.47;2.20;;;;;;;;;;5278878;27;20022;-66
2024/04/21 12:43:25;;;;;;;3.05;2.00;;;;;;;;;;5279028;27;20013;-66
2024/04/21 12:45:50;;;;;;;3.65;2.00;;;;;;;;;;5370176;21;20004;-66
2024/04/21 12:48:15;;;;;;;3.13;1.73;;;;;;;;;;5346904;26;20063;-66
2024/04/21 12:50:40;;;;;;;2.45;1.92;;;;;;;;;;5347861;26;20062;-66
2024/04/21 12:53:06;;;;;;;4.55;1.90;;;;;;;;;;5347254;26;20007;-66
2024/04/21 12:55:31;;;;;;;3.28;1.80;;;;;;;;;;5347370;26;20043;-66
2024/04/21 12:57:57;;;;;;;2.95;1.75;;;;;;;;;;5347439;26;20002;-66
2024/04/21 13:00:22;;;;;;;4.05;1.88;;;;;;;;;;5345388;26;20393;-65
2024/04/21 13:02:47;;;;;;;2.85;1.67;;;;;;;;;;5374566;26;19993;-66
2024/04/21 13:05:14;;;;;;;3.10;2.03;;;;;;;;;;5347352;26;20025;-66
2024/04/21 13:07:39;;;;;;;3.47;2.10;;;;;;;;;;5347323;26;19996;-66
2024/04/21 13:10:04;;;;;;;2.40;1.52;;;;;;;;;;5346631;26;20021;-66
2024/04/21 13:12:30;;;;;;;2.88;2.05;;;;;;;;;;5347140;26;20485;-66
2024/04/21 13:14:55;;;;;;;3.00;1.98;;;;;;;;;;5346795;26;20005;-66
2024/04/21 13:17:20;;;;;;;3.38;1.77;;;;;;;;;;5347023;26;19993;-66
2024/04/21 13:19:46;;;;;;;3.42;2.00;;;;;;;;;;5347047;26;20340;-66
2024/04/21 13:22:11;;;;;;;4.13;1.90;;;;;;;;;;5347160;26;20000;-66
2024/04/21 13:24:36;;;;;;;2.10;1.70;;;;;;;;;;5346238;26;19996;-66
2024/04/21 13:27:02;;;;;;;3.45;1.60;;;;;;;;;;5346962;26;20012;-66
2024/04/21 13:29:29;;;;;;;3.08;1.77;;;;;;;;;;5346876;26;20053;-66
2024/04/21 13:31:54;;;;;;;2.90;1.92;;;;;;;;;;5347155;26;20063;-66
2024/04/21 13:34:19;;;;;;;4.78;1.73;;;;;;;;;;5346003;26;20000;-66
2024/04/21 13:36:45;;;;;;;3.65;1.85;;;;;;;;;;5346907;26;20033;-66
2024/04/21 13:39:10;;;;;;;2.47;1.52;;;;;;;;;;5346871;26;20021;-66
2024/04/21 13:41:35;;;;;;;4.35;1.80;;;;;;;;;;5346952;26;20018;-66
2024/04/21 13:44:02;;;;;;;2.33;1.60;;;;;;;;;;5346639;26;19997;-66
2024/04/21 13:46:27;;;;;;;2.05;1.30;;;;;;;;;;5346027;26;20004;-66
2024/04/21 13:48:52;;;;;;;3.85;1.50;;;;;;;;;;5346586;26;20001;-66
2024/04/21 13:51:18;;;;;;;3.13;1.40;;;;;;;;;;5346544;26;20029;-66
2024/04/21 13:53:43;;;;;;;2.70;1.70;;;;;;;;;;5346422;26;19993;-67
2024/04/21 13:56:08;;;;;;;2.92;1.83;;;;;;;;;;5346730;26;19989;-66
2024/04/21 13:58:34;;;;;;;4.20;1.75;;;;;;;;;;5345914;26;20004;-66
2024/04/21 14:00:59;;;;;;;2.38;2.03;;;;;;;;;;5346595;26;20009;-66
2024/04/21 14:03:24;;;;;;;2.47;1.70;;;;;;;;;;5346448;26;20062;-66
2024/04/21 14:05:49;;;;;;;2.10;1.13;;;;;;;;;;5346261;26;20458;-66
2024/04/21 14:08:15;;;;;;;2.55;1.55;;;;;;;;;;5346390;26;20129;-66
2024/04/21 14:10:40;;;;;;;2.05;1.50;;;;;;;;;;5347276;26;20331;-66
2024/04/21 14:13:05;;;;;;;2.70;2.00;;;;;;;;;;5349100;26;20004;-66
2024/04/21 14:15:31;;;;;;;2.25;1.40;;;;;;;;;;5349444;26;20438;-66
2024/04/21 14:17:58;;;;;;;3.38;1.45;;;;;;;;;;5377255;26;20008;-66
2024/04/21 14:20:23;;;;;;;2.08;1.40;;;;;;;;;;5349567;26;20039;-67
2024/04/21 14:22:49;;;;;;;3.67;1.73;;;;;;;;;;5348821;26;19993;-66
2024/04/21 14:25:14;;;;;;;2.00;1.23;;;;;;;;;;5336750;26;20016;-68
2024/04/21 14:27:39;;;;;;;3.50;1.83;;;;;;;;;;5333964;26;20074;-67
2024/04/21 14:30:05;;;;;;;2.13;1.50;;;;;;;;;;5346773;26;20000;-67